Anzahl Datensätze: 143
min. Temperatur: 8.2 °C
max. Temperatur: 22.7 °C
max. Windgeschwindigkeit: 9.4 km/h
Niederschlagsumme: 0.0 mm
| Datum |
Zeit |
Temp °C |
Feuchte % |
Taupunkt °C |
Luftdruck hPa |
Wind km/h |
Windrichtung |
Strahlung w/m² |
Niederschlag mm |
|---|---|---|---|---|---|---|---|---|---|
| 07.09.2025 | 00:05 | 10.9 | 87 | 8.9 | 1019.9 | 2.9 | NNO | 0 | 0.0 |
| 07.09.2025 | 00:15 | 10.8 | 89 | 9.1 | 1020.0 | 0.4 | N | 0 | 0.0 |
| 07.09.2025 | 00:25 | 11.0 | 87 | 9.0 | 1019.8 | 1.8 | ONO | 0 | 0.0 |
| 07.09.2025 | 00:35 | 10.7 | 88 | 8.8 | 1019.8 | 2.5 | NO | 0 | 0.0 |
| 07.09.2025 | 00:45 | 10.7 | 88 | 8.8 | 1019.8 | 1.4 | N | 0 | 0.0 |
| 07.09.2025 | 00:55 | 10.5 | 88 | 8.7 | 1020.0 | 1.8 | NNO | 0 | 0.0 |
| 07.09.2025 | 01:05 | 10.4 | 90 | 8.8 | 1020.0 | 0.7 | NNO | 0 | 0.0 |
| 07.09.2025 | 01:15 | 10.1 | 91 | 8.8 | 1020.0 | 1.8 | N | 0 | 0.0 |
| 07.09.2025 | 01:25 | 10.4 | 89 | 8.7 | 1020.0 | 2.5 | NO | 0 | 0.0 |
| 07.09.2025 | 01:35 | 10.1 | 91 | 8.7 | 1020.1 | 2.2 | N | 0 | 0.0 |
| 07.09.2025 | 01:45 | 10.1 | 90 | 8.5 | 1020.0 | 1.1 | N | 0 | 0.0 |
| 07.09.2025 | 01:55 | 9.9 | 89 | 8.3 | 1020.0 | 1.8 | NNO | 0 | 0.0 |
| 07.09.2025 | 02:05 | 10.1 | 89 | 8.4 | 1019.9 | 0.7 | N | 0 | 0.0 |
| 07.09.2025 | 02:15 | 9.9 | 90 | 8.3 | 1020.2 | 1.8 | NNO | 0 | 0.0 |
| 07.09.2025 | 02:25 | 9.8 | 90 | 8.2 | 1020.1 | 2.2 | NNO | 0 | 0.0 |
| 07.09.2025 | 02:36 | 9.7 | 89 | 7.9 | 1020.1 | 1.8 | NNO | 0 | 0.0 |
| 07.09.2025 | 02:46 | 9.7 | 89 | 8.0 | 1020.0 | 1.4 | NO | 0 | 0.0 |
| 07.09.2025 | 02:56 | 9.6 | 90 | 8.0 | 1020.1 | 2.5 | NNO | 0 | 0.0 |
| 07.09.2025 | 03:06 | 9.5 | 90 | 7.9 | 1020.2 | 1.4 | NNO | 0 | 0.0 |
| 07.09.2025 | 03:16 | 9.6 | 90 | 8.0 | 1020.2 | 0.4 | N | 0 | 0.0 |
| 07.09.2025 | 03:26 | 9.4 | 90 | 7.9 | 1020.3 | 1.1 | N | 0 | 0.0 |
| 07.09.2025 | 03:36 | 9.4 | 90 | 7.8 | 1020.1 | 1.8 | NO | 0 | 0.0 |
| 07.09.2025 | 03:46 | 9.3 | 89 | 7.6 | 1020.2 | 1.8 | ONO | 0 | 0.0 |
| 07.09.2025 | 03:56 | 9.3 | 90 | 7.7 | 1020.1 | 1.1 | ONO | 0 | 0.0 |
| 07.09.2025 | 04:06 | 9.1 | 89 | 7.4 | 1020.2 | 2.2 | N | 0 | 0.0 |
| 07.09.2025 | 04:16 | 9.0 | 90 | 7.4 | 1020.2 | 1.4 | NNO | 0 | 0.0 |
| 07.09.2025 | 04:26 | 9.2 | 89 | 7.6 | 1020.1 | 0.7 | N | 0 | 0.0 |
| 07.09.2025 | 04:36 | 8.9 | 90 | 7.4 | 1020.0 | 0.7 | ONO | 0 | 0.0 |
| 07.09.2025 | 04:46 | 8.8 | 90 | 7.2 | 1020.1 | 0.7 | N | 0 | 0.0 |
| 07.09.2025 | 04:56 | 9.0 | 89 | 7.4 | 1020.0 | 0.7 | N | 0 | 0.0 |
| 07.09.2025 | 05:06 | 8.9 | 90 | 7.4 | 1019.9 | 0.7 | S | 0 | 0.0 |
| 07.09.2025 | 05:16 | 8.7 | 92 | 7.5 | 1020.0 | 1.4 | NNO | 0 | 0.0 |
| 07.09.2025 | 05:26 | 8.6 | 91 | 7.3 | 1020.0 | 0.7 | N | 0 | 0.0 |
| 07.09.2025 | 05:36 | 8.5 | 91 | 7.0 | 1020.0 | 2.5 | NO | 0 | 0.0 |
| 07.09.2025 | 05:46 | 8.8 | 90 | 7.3 | 1019.8 | 1.8 | WSW | 0 | 0.0 |
| 07.09.2025 | 05:56 | 8.6 | 90 | 7.1 | 1019.8 | 2.5 | NNO | 0 | 0.0 |
| 07.09.2025 | 06:06 | 8.6 | 91 | 7.3 | 1019.9 | 1.4 | N | 0 | 0.0 |
| 07.09.2025 | 06:16 | 8.3 | 91 | 7.0 | 1019.9 | 2.2 | NNO | 0 | 0.0 |
| 07.09.2025 | 06:26 | 8.5 | 90 | 7.0 | 1019.8 | 1.4 | NO | 0 | 0.0 |
| 07.09.2025 | 06:36 | 8.5 | 90 | 6.9 | 1019.8 | 2.5 | NNO | 0 | 0.0 |
| 07.09.2025 | 06:46 | 8.3 | 91 | 6.9 | 1019.8 | 2.2 | NNO | 0 | 0.0 |
| 07.09.2025 | 06:56 | 8.3 | 90 | 6.8 | 1019.8 | 2.2 | ONO | 2 | 0.0 |
| 07.09.2025 | 07:06 | 8.2 | 90 | 6.7 | 1019.9 | 2.2 | NO | 6 | 0.0 |
| 07.09.2025 | 07:16 | 8.5 | 90 | 7.0 | 1019.9 | 1.4 | N | 11 | 0.0 |
| 07.09.2025 | 07:26 | 8.3 | 90 | 6.8 | 1019.9 | 0.7 | NNO | 18 | 0.0 |
| 07.09.2025 | 07:36 | 8.3 | 90 | 6.8 | 1020.1 | 0.0 | N | 25 | 0.0 |
| 07.09.2025 | 07:47 | 8.4 | 91 | 7.0 | 1019.8 | 2.2 | N | 32 | 0.0 |
| 07.09.2025 | 07:57 | 8.8 | 90 | 7.2 | 1019.7 | 0.7 | N | 36 | 0.0 |
| 07.09.2025 | 08:07 | 9.0 | 91 | 7.6 | 1019.5 | 0.4 | N | 40 | 0.0 |
| 07.09.2025 | 08:17 | 9.4 | 90 | 7.8 | 1019.5 | 3.2 | S | 47 | 0.0 |
| 07.09.2025 | 08:27 | 9.3 | 90 | 7.7 | 1019.4 | 1.4 | N | 54 | 0.0 |
| 07.09.2025 | 08:37 | 9.5 | 89 | 7.8 | 1019.5 | 1.8 | N | 57 | 0.0 |
| 07.09.2025 | 08:47 | 9.8 | 88 | 8.0 | 1019.3 | 0.7 | N | 56 | 0.0 |
| 07.09.2025 | 08:57 | 10.5 | 87 | 8.4 | 1019.0 | 1.8 | S | 216 | 0.0 |
| 07.09.2025 | 09:07 | 10.9 | 84 | 8.3 | 1019.0 | 2.9 | S | 229 | 0.0 |
| 07.09.2025 | 09:17 | 11.9 | 80 | 8.6 | 1018.9 | 3.2 | S | 218 | 0.0 |
| 07.09.2025 | 09:27 | 11.9 | 78 | 8.3 | 1018.9 | 2.9 | S | 245 | 0.0 |
| 07.09.2025 | 09:37 | 12.2 | 76 | 8.2 | 1018.9 | 2.5 | SSW | 259 | 0.0 |
| 07.09.2025 | 09:47 | 13.1 | 71 | 8.1 | 1018.6 | 2.2 | S | 230 | 0.0 |
| 07.09.2025 | 09:57 | 12.5 | 77 | 8.7 | 1018.8 | 2.5 | SSW | 284 | 0.0 |
| 07.09.2025 | 10:07 | 12.8 | 77 | 9.0 | 1018.6 | 4.0 | S | 311 | 0.0 |
| 07.09.2025 | 10:17 | 13.8 | 74 | 9.3 | 1018.3 | 3.2 | SSW | 340 | 0.0 |
| 07.09.2025 | 10:27 | 14.5 | 72 | 9.5 | 1018.0 | 5.0 | S | 311 | 0.0 |
| 07.09.2025 | 10:37 | 13.5 | 73 | 8.8 | 1018.2 | 4.3 | SSW | 431 | 0.0 |
| 07.09.2025 | 10:47 | 14.0 | 71 | 8.8 | 1018.2 | 3.6 | S | 436 | 0.0 |
| 07.09.2025 | 10:57 | 14.2 | 70 | 8.7 | 1018.1 | 5.4 | S | 457 | 0.0 |
| 07.09.2025 | 11:07 | 14.7 | 67 | 8.7 | 1017.8 | 4.7 | S | 447 | 0.0 |
| 07.09.2025 | 11:17 | 15.2 | 69 | 9.5 | 1017.4 | 4.0 | SSW | 491 | 0.0 |
| 07.09.2025 | 11:27 | 14.9 | 69 | 9.2 | 1017.5 | 4.7 | S | 475 | 0.0 |
| 07.09.2025 | 11:37 | 15.4 | 67 | 9.2 | 1017.2 | 5.0 | S | 489 | 0.0 |
| 07.09.2025 | 11:47 | 14.8 | 64 | 8.1 | 1017.3 | 5.0 | SSW | 470 | 0.0 |
| 07.09.2025 | 11:57 | 15.9 | 61 | 8.5 | 1017.0 | 2.9 | S | 520 | 0.0 |
| 07.09.2025 | 12:07 | 16.3 | 63 | 9.3 | 1016.9 | 4.3 | S | 530 | 0.0 |
| 07.09.2025 | 12:17 | 15.7 | 63 | 8.6 | 1016.9 | 2.5 | SSW | 530 | 0.0 |
| 07.09.2025 | 12:27 | 16.3 | 63 | 9.2 | 1016.9 | 4.0 | S | 533 | 0.0 |
| 07.09.2025 | 12:37 | 17.1 | 62 | 9.7 | 1016.7 | 2.9 | SSW | 535 | 0.0 |
| 07.09.2025 | 12:47 | 17.5 | 57 | 8.8 | 1016.2 | 2.5 | SSW | 502 | 0.0 |
| 07.09.2025 | 12:58 | 18.3 | 54 | 8.8 | 1016.1 | 4.3 | WSW | 466 | 0.0 |
| 07.09.2025 | 13:08 | 16.9 | 62 | 9.7 | 1016.5 | 5.0 | S | 560 | 0.0 |
| 07.09.2025 | 13:18 | 16.7 | 60 | 8.9 | 1016.4 | 4.7 | S | 481 | 0.0 |
| 07.09.2025 | 13:28 | 17.2 | 62 | 9.7 | 1016.2 | 4.3 | S | 491 | 0.0 |
| 07.09.2025 | 13:38 | 17.8 | 59 | 9.6 | 1016.0 | 2.9 | S | 470 | 0.0 |
| 07.09.2025 | 13:48 | 17.7 | 56 | 8.9 | 1016.0 | 4.7 | S | 543 | 0.0 |
| 07.09.2025 | 13:58 | 18.2 | 56 | 9.3 | 1015.5 | 3.2 | SSW | 496 | 0.0 |
| 07.09.2025 | 14:08 | 18.4 | 55 | 9.1 | 1015.4 | 4.3 | SSW | 580 | 0.0 |
| 07.09.2025 | 14:18 | 18.0 | 54 | 8.6 | 1015.5 | 5.0 | S | 574 | 0.0 |
| 07.09.2025 | 14:28 | 18.5 | 56 | 9.5 | 1015.3 | 4.0 | S | 562 | 0.0 |
| 07.09.2025 | 14:38 | 18.5 | 54 | 8.9 | 1015.2 | 2.9 | S | 572 | 0.0 |
| 07.09.2025 | 14:48 | 19.5 | 56 | 10.6 | 1014.7 | 2.9 | S | 559 | 0.0 |
| 07.09.2025 | 14:58 | 19.3 | 51 | 9.0 | 1014.5 | 3.2 | SW | 534 | 0.0 |
| 07.09.2025 | 15:08 | 18.8 | 58 | 10.3 | 1014.6 | 3.6 | SW | 539 | 0.0 |
| 07.09.2025 | 15:18 | 19.0 | 56 | 10.1 | 1014.4 | 5.0 | S | 523 | 0.0 |
| 07.09.2025 | 15:28 | 19.4 | 54 | 9.9 | 1014.4 | 4.3 | S | 498 | 0.0 |
| 07.09.2025 | 15:38 | 19.8 | 55 | 10.5 | 1014.2 | 1.1 | NW | 458 | 0.0 |
| 07.09.2025 | 15:48 | 20.4 | 57 | 11.6 | 1014.0 | 3.2 | S | 465 | 0.0 |
| 07.09.2025 | 15:58 | 19.8 | 62 | 12.3 | 1014.1 | 5.0 | SSW | 465 | 0.0 |
| 07.09.2025 | 16:08 | 21.6 | 46 | 9.6 | 1013.6 | 2.5 | WSW | 454 | 0.0 |
| 07.09.2025 | 16:18 | 22.7 | 46 | 10.5 | 1013.5 | 1.8 | SSW | 448 | 0.0 |
| 07.09.2025 | 16:28 | 20.6 | 53 | 10.8 | 1013.7 | 3.6 | S | 422 | 0.0 |
| 07.09.2025 | 16:38 | 21.1 | 46 | 9.0 | 1013.4 | 4.7 | S | 405 | 0.0 |
| 07.09.2025 | 16:48 | 20.0 | 59 | 11.9 | 1013.7 | 3.2 | SSW | 380 | 0.0 |
| 07.09.2025 | 16:58 | 20.4 | 50 | 9.6 | 1013.7 | 5.4 | SSW | 366 | 0.0 |
| 07.09.2025 | 17:08 | 20.5 | 58 | 11.9 | 1013.6 | 4.0 | SSW | 327 | 0.0 |
| 07.09.2025 | 17:18 | 20.8 | 50 | 10.0 | 1013.4 | 3.2 | SSW | 310 | 0.0 |
| 07.09.2025 | 17:28 | 21.2 | 50 | 10.4 | 1013.2 | 3.6 | SSW | 276 | 0.0 |
| 07.09.2025 | 17:38 | 21.4 | 49 | 10.4 | 1013.1 | 3.2 | S | 262 | 0.0 |
| 07.09.2025 | 17:48 | 21.1 | 56 | 12.1 | 1013.0 | 5.8 | S | 236 | 0.0 |
| 07.09.2025 | 17:59 | 21.1 | 55 | 11.6 | 1012.9 | 1.8 | S | 212 | 0.0 |
| 07.09.2025 | 18:09 | 21.2 | 57 | 12.3 | 1013.0 | 2.2 | SSW | 195 | 0.0 |
| 07.09.2025 | 18:19 | 20.7 | 55 | 11.4 | 1013.3 | 3.6 | S | 189 | 0.0 |
| 07.09.2025 | 18:29 | 20.8 | 57 | 11.9 | 1013.3 | 1.8 | SW | 174 | 0.0 |
| 07.09.2025 | 18:39 | 21.3 | 50 | 10.5 | 1013.4 | 2.5 | SSW | 146 | 0.0 |
| 07.09.2025 | 18:49 | 20.7 | 52 | 10.5 | 1013.6 | 1.1 | SW | 26 | 0.0 |
| 07.09.2025 | 18:59 | 19.1 | 67 | 12.7 | 1014.0 | 1.1 | N | 22 | 0.0 |
| 07.09.2025 | 19:09 | 18.6 | 73 | 13.7 | 1014.0 | 1.4 | S | 19 | 0.0 |
| 07.09.2025 | 19:19 | 18.8 | 65 | 12.1 | 1014.0 | 2.5 | N | 15 | 0.0 |
| 07.09.2025 | 19:29 | 18.7 | 61 | 10.9 | 1014.1 | 1.1 | N | 12 | 0.0 |
| 07.09.2025 | 19:39 | 17.9 | 73 | 12.9 | 1014.4 | 0.7 | N | 7 | 0.0 |
| 07.09.2025 | 19:49 | 17.5 | 75 | 13.1 | 1014.5 | 1.1 | NW | 4 | 0.0 |
| 07.09.2025 | 19:59 | 16.8 | 77 | 12.7 | 1014.9 | 3.2 | N | 0 | 0.0 |
| 07.09.2025 | 20:09 | 16.8 | 72 | 11.6 | 1015.1 | 1.4 | N | 0 | 0.0 |
| 07.09.2025 | 20:19 | 16.8 | 66 | 10.4 | 1015.0 | 1.4 | NNO | 0 | 0.0 |
| 07.09.2025 | 20:29 | 16.4 | 67 | 10.4 | 1015.2 | 1.4 | NNO | 0 | 0.0 |
| 07.09.2025 | 20:39 | 16.6 | 65 | 9.9 | 1015.3 | 2.9 | NNW | 0 | 0.0 |
| 07.09.2025 | 20:49 | 16.2 | 67 | 10.0 | 1015.5 | 2.9 | NNO | 0 | 0.0 |
| 07.09.2025 | 20:59 | 16.1 | 72 | 11.1 | 1015.7 | 4.0 | S | 0 | 0.0 |
| 07.09.2025 | 21:09 | 15.4 | 78 | 11.6 | 1015.9 | 0.7 | N | 0 | 0.0 |
| 07.09.2025 | 21:19 | 15.0 | 79 | 11.4 | 1016.1 | 1.8 | NNO | 0 | 0.0 |
| 07.09.2025 | 21:29 | 14.7 | 80 | 11.2 | 1016.3 | 2.5 | NNO | 0 | 0.0 |
| 07.09.2025 | 21:39 | 14.7 | 79 | 11.1 | 1016.3 | 2.5 | N | 0 | 0.0 |
| 07.09.2025 | 21:49 | 14.7 | 78 | 10.9 | 1016.4 | 1.4 | N | 0 | 0.0 |
| 07.09.2025 | 21:59 | 14.4 | 83 | 11.5 | 1016.5 | 0.4 | SSO | 0 | 0.0 |
| 07.09.2025 | 22:09 | 14.0 | 82 | 10.9 | 1016.7 | 2.2 | NNO | 0 | 0.0 |
| 07.09.2025 | 22:19 | 14.0 | 78 | 10.1 | 1016.7 | 2.2 | NNO | 0 | 0.0 |
| 07.09.2025 | 22:29 | 14.2 | 76 | 10.1 | 1016.7 | 1.8 | NO | 0 | 0.0 |
| 07.09.2025 | 22:39 | 14.1 | 79 | 10.4 | 1016.6 | 1.1 | N | 0 | 0.0 |
| 07.09.2025 | 22:49 | 14.0 | 80 | 10.7 | 1016.7 | 1.1 | NW | 0 | 0.0 |
| 07.09.2025 | 23:00 | 13.6 | 82 | 10.7 | 1016.6 | 0.7 | NNO | 0 | 0.0 |
| 07.09.2025 | 23:10 | 13.6 | 83 | 10.8 | 1016.5 | 1.8 | N | 0 | 0.0 |
| 07.09.2025 | 23:20 | 13.5 | 83 | 10.7 | 1016.7 | 1.1 | N | 0 | 0.0 |
| 07.09.2025 | 23:30 | 13.1 | 82 | 10.2 | 1016.7 | 1.1 | N | 0 | 0.0 |
| 07.09.2025 | 23:40 | 12.9 | 85 | 10.5 | 1016.9 | 1.4 | NNO | 0 | 0.0 |
| 07.09.2025 | 23:50 | 12.8 | 85 | 10.3 | 1016.9 | 1.8 | NO | 0 | 0.0 |